createdAt,value
2019-05-05T00:00:08.364Z,944.83
2019-05-05T00:01:08.334Z,944.86
2019-05-05T00:02:08.352Z,944.91
2019-05-05T00:03:08.305Z,944.93
2019-05-05T00:04:08.319Z,944.92
2019-05-05T00:05:08.745Z,944.90
2019-05-05T00:06:08.259Z,944.89
2019-05-05T00:07:08.258Z,944.85
2019-05-05T00:08:08.247Z,944.82
2019-05-05T00:09:08.337Z,944.86
2019-05-05T00:10:08.239Z,944.88
2019-05-05T00:11:08.217Z,944.92
2019-05-05T00:12:08.218Z,944.97
2019-05-05T00:13:08.195Z,944.95
2019-05-05T00:14:08.207Z,945.04
2019-05-05T00:15:08.260Z,945.06
2019-05-05T00:16:08.182Z,945.07
2019-05-05T00:17:08.908Z,945.01
2019-05-05T00:18:08.159Z,945.10
2019-05-05T00:19:08.157Z,945.07
2019-05-05T00:20:08.154Z,945.07
2019-05-05T00:21:08.102Z,945.10
2019-05-05T00:22:08.144Z,945.09
2019-05-05T00:23:08.111Z,945.10
2019-05-05T00:24:08.069Z,945.09
2019-05-05T00:25:08.104Z,945.13
2019-05-05T00:26:08.077Z,945.11
2019-05-05T00:27:08.046Z,945.08
2019-05-05T00:28:08.035Z,945.10
2019-05-05T00:29:08.021Z,945.07
2019-05-05T00:30:08.064Z,945.07
2019-05-05T00:31:08.035Z,945.07
2019-05-05T00:32:08.022Z,945.07
2019-05-05T00:33:07.991Z,945.06
2019-05-05T00:34:07.957Z,945.04
2019-05-05T00:35:07.984Z,945.05
2019-05-05T00:36:07.969Z,945.10
2019-05-05T00:37:07.916Z,945.09
2019-05-05T00:38:07.944Z,945.08
2019-05-05T00:39:07.897Z,945.07
2019-05-05T00:40:07.898Z,945.10
2019-05-05T00:41:07.907Z,945.17
2019-05-05T00:42:07.869Z,945.17
2019-05-05T00:43:07.848Z,945.18
2019-05-05T00:44:07.883Z,945.26
2019-05-05T00:45:07.894Z,945.28
2019-05-05T00:46:07.868Z,945.28
2019-05-05T00:47:07.819Z,945.28
2019-05-05T00:48:07.796Z,945.27
2019-05-05T00:49:07.789Z,945.33
2019-05-05T00:50:07.778Z,945.34
2019-05-05T00:51:07.827Z,945.32
2019-05-05T00:52:07.752Z,945.34
2019-05-05T00:53:07.747Z,945.39
2019-05-05T00:54:07.721Z,945.39
2019-05-05T00:55:07.720Z,945.39
2019-05-05T00:56:07.775Z,945.37
2019-05-05T00:57:07.735Z,945.39
2019-05-05T00:58:07.684Z,945.42
2019-05-05T00:59:07.669Z,945.40
2019-05-05T01:00:07.670Z,945.40
2019-05-05T01:01:07.661Z,945.37
2019-05-05T01:02:07.717Z,945.39
2019-05-05T01:03:07.624Z,945.39
2019-05-05T01:04:07.622Z,945.44
2019-05-05T01:05:07.622Z,945.36
2019-05-05T01:06:07.634Z,945.36
2019-05-05T01:07:07.615Z,945.36
2019-05-05T01:08:07.572Z,945.39
2019-05-05T01:09:07.569Z,945.40
2019-05-05T01:10:07.546Z,945.49
2019-05-05T01:11:07.574Z,945.48
2019-05-05T01:12:07.566Z,945.53
2019-05-05T01:13:07.512Z,945.52
2019-05-05T01:14:07.507Z,945.55
2019-05-05T01:15:07.625Z,945.59
2019-05-05T01:16:07.492Z,945.58
2019-05-05T01:17:07.479Z,945.52
2019-05-05T01:18:07.465Z,945.61
2019-05-05T01:19:07.475Z,945.50
2019-05-05T01:20:07.469Z,945.55
2019-05-05T01:21:07.431Z,945.52
2019-05-05T01:22:07.506Z,945.50
2019-05-05T01:23:07.422Z,945.47
2019-05-05T01:24:07.480Z,945.48
2019-05-05T01:25:07.377Z,945.56
2019-05-05T01:26:07.384Z,945.52
2019-05-05T01:27:07.362Z,945.54
2019-05-05T01:28:07.375Z,945.60
2019-05-05T01:29:07.363Z,945.59
2019-05-05T01:30:07.355Z,945.61
2019-05-05T01:31:07.300Z,945.68
2019-05-05T01:32:07.295Z,945.63
2019-05-05T01:33:07.296Z,945.65
2019-05-05T01:34:07.283Z,945.65
2019-05-05T01:35:07.357Z,945.69
2019-05-05T01:36:07.270Z,945.70
2019-05-05T01:37:07.245Z,945.75
2019-05-05T01:38:07.242Z,945.68
2019-05-05T01:39:07.248Z,945.76
2019-05-05T01:40:07.234Z,945.74
2019-05-05T01:41:07.198Z,945.67
2019-05-05T01:42:07.181Z,945.71
2019-05-05T01:43:07.177Z,945.71
2019-05-05T01:44:07.227Z,945.67
2019-05-05T01:45:07.183Z,945.75
2019-05-05T01:46:07.172Z,945.73
2019-05-05T01:47:07.137Z,945.85
2019-05-05T01:48:07.119Z,945.76
2019-05-05T01:49:07.111Z,945.80
2019-05-05T01:50:17.607Z,945.85
2019-05-05T01:51:07.114Z,945.84
2019-05-05T01:52:07.105Z,945.82
2019-05-05T01:53:07.065Z,945.81
2019-05-05T01:54:07.046Z,945.78
2019-05-05T01:55:07.051Z,945.84
2019-05-05T01:56:07.073Z,945.85
2019-05-05T01:57:07.047Z,945.86
2019-05-05T01:58:07.029Z,945.87
2019-05-05T01:59:06.988Z,945.91
2019-05-05T02:00:06.989Z,945.88
2019-05-05T02:01:06.968Z,945.88
2019-05-05T02:02:06.957Z,945.90
2019-05-05T02:03:06.985Z,945.88
2019-05-05T02:04:06.985Z,945.94
2019-05-05T02:05:06.930Z,945.91
2019-05-05T02:06:06.922Z,945.96
2019-05-05T02:07:06.906Z,945.90
2019-05-05T02:08:06.926Z,945.94
2019-05-05T02:09:06.882Z,945.92
2019-05-05T02:10:06.922Z,945.98
2019-05-05T02:11:06.855Z,946.04
2019-05-05T02:12:06.848Z,946.07
2019-05-05T02:13:06.861Z,946.03
2019-05-05T02:14:06.820Z,946.12
2019-05-05T02:15:06.815Z,946.15
2019-05-05T02:16:06.853Z,946.24
2019-05-05T02:17:06.788Z,946.27
2019-05-05T02:18:06.801Z,946.30
2019-05-05T02:19:06.768Z,946.27
2019-05-05T02:20:06.758Z,946.26
2019-05-05T02:21:06.779Z,946.26
2019-05-05T02:22:06.738Z,946.27
2019-05-05T02:23:06.768Z,946.23
2019-05-05T02:24:06.704Z,946.21
2019-05-05T02:25:06.722Z,946.16
2019-05-05T02:26:06.716Z,946.14
2019-05-05T02:27:06.683Z,946.08
2019-05-05T02:28:06.814Z,946.11
2019-05-05T02:29:06.748Z,946.09
2019-05-05T02:30:06.678Z,946.11
2019-05-05T02:31:06.673Z,946.15
2019-05-05T02:32:06.733Z,946.20
2019-05-05T02:33:06.622Z,946.19
2019-05-05T02:34:06.597Z,946.21
2019-05-05T02:35:06.695Z,946.26
2019-05-05T02:36:06.584Z,946.26
2019-05-05T02:37:06.580Z,946.28
2019-05-05T02:38:06.872Z,946.31
2019-05-05T02:39:06.551Z,946.37
2019-05-05T02:40:07.568Z,946.42
2019-05-05T02:41:06.524Z,946.47
2019-05-05T02:42:06.540Z,946.50
2019-05-05T02:43:06.499Z,946.52
2019-05-05T02:44:06.476Z,946.53
2019-05-05T02:45:06.537Z,946.51
2019-05-05T02:46:06.460Z,946.52
2019-05-05T02:47:06.484Z,946.45
2019-05-05T02:48:06.439Z,946.44
2019-05-05T02:49:06.425Z,946.48
2019-05-05T02:50:06.421Z,946.39
2019-05-05T02:51:07.200Z,946.34
2019-05-05T02:52:06.467Z,946.29
2019-05-05T02:53:06.386Z,946.35
2019-05-05T02:54:06.376Z,946.33
2019-05-05T02:55:06.362Z,946.32
2019-05-05T02:56:06.342Z,946.36
2019-05-05T02:57:06.427Z,946.39
2019-05-05T02:58:06.330Z,946.43
2019-05-05T02:59:06.341Z,946.44
2019-05-05T03:00:06.300Z,946.50
2019-05-05T03:01:06.292Z,946.51
2019-05-05T03:02:06.323Z,946.52
2019-05-05T03:03:06.270Z,946.48
2019-05-05T03:04:06.263Z,946.50
2019-05-05T03:05:06.284Z,946.57
2019-05-05T03:06:06.241Z,946.56
2019-05-05T03:07:06.261Z,946.52
2019-05-05T03:08:06.216Z,946.55
2019-05-05T03:09:06.198Z,946.61
2019-05-05T03:10:06.197Z,946.62
2019-05-05T03:11:06.224Z,946.64
2019-05-05T03:12:06.164Z,946.69
2019-05-05T03:13:06.158Z,946.72
2019-05-05T03:14:06.143Z,946.72
2019-05-05T03:15:06.131Z,946.71
2019-05-05T03:16:06.148Z,946.70
2019-05-05T03:17:06.177Z,946.72
2019-05-05T03:18:06.141Z,946.69
2019-05-05T03:19:06.088Z,946.65
2019-05-05T03:20:06.079Z,946.64
2019-05-05T03:21:07.434Z,946.67
2019-05-05T03:22:06.049Z,946.64
2019-05-05T03:23:06.105Z,946.68
2019-05-05T03:24:06.034Z,946.66
2019-05-05T03:25:06.017Z,946.67
2019-05-05T03:26:06.013Z,946.73
2019-05-05T03:27:06.029Z,946.76
2019-05-05T03:28:05.982Z,946.75
2019-05-05T03:29:06.004Z,946.77
2019-05-05T03:30:05.971Z,946.78
2019-05-05T03:31:05.952Z,946.81
2019-05-05T03:32:10.749Z,946.88
2019-05-05T03:33:06.936Z,946.86
2019-05-05T03:34:06.508Z,946.88
2019-05-05T03:35:05.965Z,946.91
2019-05-05T03:36:05.891Z,946.85
2019-05-05T03:37:05.880Z,946.88
2019-05-05T03:38:05.869Z,946.91
2019-05-05T03:39:05.887Z,946.88
2019-05-05T03:40:05.850Z,946.92
2019-05-05T03:41:05.863Z,946.86
2019-05-05T03:42:05.824Z,946.87
2019-05-05T03:43:05.843Z,946.89
2019-05-05T03:44:05.824Z,946.85
2019-05-05T03:45:05.793Z,946.85
2019-05-05T03:46:05.784Z,946.93
2019-05-05T03:47:05.790Z,946.96
2019-05-05T03:48:05.789Z,946.95
2019-05-05T03:49:05.744Z,946.85
2019-05-05T03:50:05.740Z,946.94
2019-05-05T03:51:18.227Z,946.89
2019-05-05T03:52:06.712Z,946.95
2019-05-05T03:53:05.745Z,946.90
2019-05-05T03:54:05.691Z,946.92
2019-05-05T03:55:05.712Z,946.97
2019-05-05T03:56:05.661Z,947.01
2019-05-05T03:57:05.686Z,946.93
2019-05-05T03:58:05.647Z,946.93
2019-05-05T03:59:05.662Z,946.95
2019-05-05T04:00:05.657Z,947.00
2019-05-05T04:01:05.735Z,946.90
2019-05-05T04:02:05.603Z,946.95
2019-05-05T04:03:05.583Z,946.93
2019-05-05T04:04:05.573Z,946.99
2019-05-05T04:05:05.644Z,946.97
2019-05-05T04:06:05.556Z,947.02
2019-05-05T04:07:05.578Z,947.00
2019-05-05T04:08:05.535Z,947.03
2019-05-05T04:09:05.511Z,947.05
2019-05-05T04:10:05.509Z,947.00
2019-05-05T04:11:05.525Z,946.94
2019-05-05T04:12:05.509Z,947.02
2019-05-05T04:13:05.470Z,947.02
2019-05-05T04:14:05.455Z,947.04
2019-05-05T04:15:05.456Z,947.01
2019-05-05T04:16:05.443Z,947.00
2019-05-05T04:17:05.538Z,947.00
2019-05-05T04:18:05.422Z,947.02
2019-05-05T04:19:05.413Z,947.01
2019-05-05T04:20:05.394Z,946.98
2019-05-05T04:21:05.384Z,947.00
2019-05-05T04:22:05.395Z,946.96
2019-05-05T04:23:05.388Z,947.02
2019-05-05T04:24:05.352Z,947.02
2019-05-05T04:25:05.355Z,947.01
2019-05-05T04:26:05.386Z,947.07
2019-05-05T04:27:05.351Z,947.10
2019-05-05T04:28:05.330Z,947.08
2019-05-05T04:29:05.544Z,947.07
2019-05-05T04:30:05.316Z,947.07
2019-05-05T04:31:05.282Z,947.10
2019-05-05T04:32:05.264Z,947.09
2019-05-05T04:33:05.282Z,947.09
2019-05-05T04:34:05.239Z,947.03
2019-05-05T04:35:05.316Z,947.08
2019-05-05T04:36:05.214Z,947.05
2019-05-05T04:37:05.235Z,947.10
2019-05-05T04:38:05.224Z,947.01
2019-05-05T04:39:05.181Z,947.07
2019-05-05T04:40:05.172Z,947.08
2019-05-05T04:41:05.161Z,947.02
2019-05-05T04:42:05.149Z,947.04
2019-05-05T04:43:05.214Z,947.04
2019-05-05T04:44:05.121Z,947.08
2019-05-05T04:45:05.119Z,947.11
2019-05-05T04:46:05.098Z,947.15
2019-05-05T04:47:05.095Z,947.15
2019-05-05T04:48:05.118Z,947.20
2019-05-05T04:49:05.084Z,947.17
2019-05-05T04:50:05.062Z,947.14
2019-05-05T04:51:05.043Z,947.16
2019-05-05T04:52:05.042Z,947.18
2019-05-05T04:53:05.065Z,947.19
2019-05-05T04:54:05.021Z,947.23
2019-05-05T04:55:05.028Z,947.23
2019-05-05T04:56:04.990Z,947.22
2019-05-05T04:57:04.982Z,947.16
2019-05-05T04:58:05.003Z,947.19
2019-05-05T04:59:04.957Z,947.25
2019-05-05T05:00:04.943Z,947.14
2019-05-05T05:01:04.965Z,947.21
2019-05-05T05:02:04.919Z,947.13
2019-05-05T05:03:04.940Z,947.16
2019-05-05T05:04:04.911Z,947.14
2019-05-05T05:05:04.899Z,947.21
2019-05-05T05:06:04.876Z,947.21
2019-05-05T05:07:04.931Z,947.21
2019-05-05T05:08:04.852Z,947.21
2019-05-05T05:09:04.839Z,947.20
2019-05-05T05:10:04.833Z,947.24
2019-05-05T05:11:04.819Z,947.20
2019-05-05T05:12:04.840Z,947.27
2019-05-05T05:13:04.819Z,947.23
2019-05-05T05:14:04.789Z,947.24
2019-05-05T05:15:04.776Z,947.25
2019-05-05T05:16:04.786Z,947.31
2019-05-05T05:17:04.756Z,947.29
2019-05-05T05:18:04.759Z,947.32
2019-05-05T05:19:04.731Z,947.34
2019-05-05T05:20:04.746Z,947.31
2019-05-05T05:21:04.707Z,947.35
2019-05-05T05:22:05.092Z,947.37
2019-05-05T05:23:04.692Z,947.36
2019-05-05T05:24:04.702Z,947.37
2019-05-05T05:25:04.692Z,947.40
2019-05-05T05:26:05.164Z,947.43
2019-05-05T05:27:05.145Z,947.47
2019-05-05T05:28:04.633Z,947.52
2019-05-05T05:29:04.680Z,947.59
2019-05-05T05:30:04.797Z,947.57
2019-05-05T05:31:04.591Z,947.57
2019-05-05T05:32:04.576Z,947.61
2019-05-05T05:33:04.600Z,947.64
2019-05-05T05:34:04.555Z,947.66
2019-05-05T05:35:04.546Z,947.64
2019-05-05T05:36:04.559Z,947.60
2019-05-05T05:37:04.524Z,947.67
2019-05-05T05:38:04.810Z,947.66
2019-05-05T05:39:04.496Z,947.71
2019-05-05T05:40:04.493Z,947.66
2019-05-05T05:41:04.489Z,947.70
2019-05-05T05:42:04.671Z,947.71
2019-05-05T05:43:04.824Z,947.74
2019-05-05T05:44:04.450Z,947.83
2019-05-05T05:45:04.438Z,947.84
2019-05-05T05:46:04.542Z,947.81
2019-05-05T05:47:04.436Z,947.83
2019-05-05T05:48:04.465Z,947.85
2019-05-05T05:49:04.572Z,947.86
2019-05-05T05:50:04.381Z,947.88
2019-05-05T05:51:04.370Z,947.92
2019-05-05T05:52:13.426Z,947.98
2019-05-05T05:53:05.372Z,948.00
2019-05-05T05:54:04.380Z,947.98
2019-05-05T05:55:04.317Z,947.99
2019-05-05T05:56:04.479Z,947.97
2019-05-05T05:57:04.480Z,948.00
2019-05-05T05:58:04.934Z,947.98
2019-05-05T05:59:04.279Z,948.00
2019-05-05T06:00:04.318Z,948.00
2019-05-05T06:01:04.476Z,948.04
2019-05-05T06:02:09.835Z,948.11
2019-05-05T06:03:05.261Z,948.10
2019-05-05T06:04:04.238Z,948.10
2019-05-05T06:05:04.381Z,948.03
2019-05-05T06:06:04.857Z,948.05
2019-05-05T06:07:04.250Z,948.05
2019-05-05T06:08:04.704Z,948.08
2019-05-05T06:09:04.344Z,948.06
2019-05-05T06:10:04.149Z,948.15
2019-05-05T06:11:04.544Z,948.16
2019-05-05T06:12:04.161Z,948.18
2019-05-05T06:13:04.327Z,948.15
2019-05-05T06:14:04.194Z,948.12
2019-05-05T06:15:04.100Z,948.13
2019-05-05T06:16:04.461Z,948.14
2019-05-05T06:17:04.294Z,948.13
2019-05-05T06:18:04.766Z,948.19
2019-05-05T06:19:04.075Z,948.26
2019-05-05T06:20:04.188Z,948.22
2019-05-05T06:21:04.603Z,948.23
2019-05-05T06:22:04.015Z,948.23
2019-05-05T06:23:04.286Z,948.28
2019-05-05T06:24:04.568Z,948.31
2019-05-05T06:25:06.480Z,948.26
2019-05-05T06:26:06.878Z,948.28
2019-05-05T06:27:03.964Z,948.28
2019-05-05T06:28:04.408Z,948.24
2019-05-05T06:29:04.518Z,948.27
2019-05-05T06:30:04.542Z,948.28
2019-05-05T06:31:04.830Z,948.34
2019-05-05T06:32:04.159Z,948.30
2019-05-05T06:33:04.902Z,948.34
2019-05-05T06:34:03.919Z,948.36
2019-05-05T06:35:03.870Z,948.36
2019-05-05T06:36:04.000Z,948.35
2019-05-05T06:37:04.335Z,948.33
2019-05-05T06:38:04.630Z,948.36
2019-05-05T06:39:04.590Z,948.37
2019-05-05T06:40:03.880Z,948.37
2019-05-05T06:41:04.206Z,948.42
2019-05-05T06:42:04.492Z,948.44
2019-05-05T06:43:04.459Z,948.43
2019-05-05T06:44:03.863Z,948.42
2019-05-05T06:45:04.217Z,948.42
2019-05-05T06:46:04.101Z,948.42
2019-05-05T06:47:04.665Z,948.42
2019-05-05T06:48:04.327Z,948.49
2019-05-05T06:49:04.389Z,948.43
2019-05-05T06:50:03.779Z,948.50
2019-05-05T06:51:04.034Z,948.50
2019-05-05T06:52:04.239Z,948.54
2019-05-05T06:53:04.278Z,948.52
2019-05-05T06:54:04.633Z,948.48
2019-05-05T06:55:03.812Z,948.56
2019-05-05T06:56:04.139Z,948.52
2019-05-05T06:57:04.468Z,948.56
2019-05-05T06:58:04.631Z,948.57
2019-05-05T06:59:04.401Z,948.62
2019-05-05T07:00:03.808Z,948.62
2019-05-05T07:01:03.740Z,948.59
2019-05-05T07:02:04.223Z,948.57
2019-05-05T07:03:07.336Z,948.63
2019-05-05T07:04:03.570Z,948.60
2019-05-05T07:05:04.134Z,948.64
2019-05-05T07:06:04.244Z,948.72
2019-05-05T07:07:05.204Z,948.71
2019-05-05T07:08:04.399Z,948.70
2019-05-05T07:09:05.341Z,948.71
2019-05-05T07:10:03.804Z,948.70
2019-05-05T07:11:04.206Z,948.66
2019-05-05T07:12:04.548Z,948.61
2019-05-05T07:13:04.958Z,948.64
2019-05-05T07:14:03.771Z,948.62
2019-05-05T07:15:04.257Z,948.63
2019-05-05T07:16:04.779Z,948.65
2019-05-05T07:17:05.100Z,948.66
2019-05-05T07:18:03.769Z,948.70
2019-05-05T07:19:04.398Z,948.65
2019-05-05T07:20:04.405Z,948.61
2019-05-05T07:21:03.792Z,948.62
2019-05-05T07:22:04.044Z,948.63
2019-05-05T07:23:05.341Z,948.63
2019-05-05T07:24:03.968Z,948.64
2019-05-05T07:25:04.695Z,948.62
2019-05-05T07:26:04.189Z,948.62
2019-05-05T07:27:04.786Z,948.64
2019-05-05T07:28:04.262Z,948.63
2019-05-05T07:29:04.573Z,948.64
2019-05-05T07:30:04.743Z,948.64
2019-05-05T07:31:04.433Z,948.66
2019-05-05T07:32:03.947Z,948.65
2019-05-05T07:33:04.594Z,948.65
2019-05-05T07:34:04.678Z,948.67
2019-05-05T07:35:04.064Z,948.65
2019-05-05T07:36:05.932Z,948.64
2019-05-05T07:37:03.822Z,948.69
2019-05-05T07:38:04.520Z,948.70
2019-05-05T07:39:03.863Z,948.72
2019-05-05T07:40:04.206Z,948.73
2019-05-05T07:41:03.717Z,948.70
2019-05-05T07:42:04.523Z,948.74
2019-05-05T07:43:04.532Z,948.74
2019-05-05T07:44:04.824Z,948.69
2019-05-05T07:45:05.463Z,948.72
2019-05-05T07:46:04.560Z,948.68
2019-05-05T07:47:03.611Z,948.67
2019-05-05T07:48:04.867Z,948.65
2019-05-05T07:49:03.861Z,948.65
2019-05-05T07:50:04.128Z,948.63
2019-05-05T07:51:05.190Z,948.61
2019-05-05T07:52:04.083Z,948.68
2019-05-05T07:53:13.931Z,948.63
2019-05-05T07:54:03.985Z,948.68
2019-05-05T07:55:03.610Z,948.72
2019-05-05T07:56:03.918Z,948.73
2019-05-05T07:57:04.229Z,948.76
2019-05-05T07:58:04.324Z,948.77
2019-05-05T07:59:03.787Z,948.80
2019-05-05T08:00:05.256Z,948.88
2019-05-05T08:01:04.652Z,948.86
2019-05-05T08:02:04.002Z,948.91
2019-05-05T08:03:03.716Z,948.98
2019-05-05T08:04:04.509Z,949.00
2019-05-05T08:05:04.649Z,949.05
2019-05-05T08:06:03.947Z,948.98
2019-05-05T08:07:04.057Z,949.03
2019-05-05T08:08:04.612Z,948.98
2019-05-05T08:09:04.115Z,949.01
2019-05-05T08:10:04.527Z,948.97
2019-05-05T08:11:04.738Z,949.02
2019-05-05T08:12:04.325Z,949.03
2019-05-05T08:13:04.646Z,949.02
2019-05-05T08:14:03.996Z,949.03
2019-05-05T08:15:04.367Z,949.04
2019-05-05T08:16:03.856Z,949.08
2019-05-05T08:17:04.134Z,949.11
2019-05-05T08:18:04.538Z,949.11
2019-05-05T08:19:03.873Z,949.07
2019-05-05T08:20:03.967Z,949.07
2019-05-05T08:21:04.268Z,949.13
2019-05-05T08:22:03.708Z,949.09
2019-05-05T08:23:04.277Z,949.18
2019-05-05T08:24:04.604Z,949.18
2019-05-05T08:25:04.066Z,949.18
2019-05-05T08:26:04.487Z,949.21
2019-05-05T08:27:04.560Z,949.21
2019-05-05T08:28:04.300Z,949.18
2019-05-05T08:29:04.682Z,949.21
2019-05-05T08:30:05.153Z,949.23
2019-05-05T08:31:03.957Z,949.25
2019-05-05T08:32:04.370Z,949.25
2019-05-05T08:33:04.489Z,949.25
2019-05-05T08:34:03.818Z,949.29
2019-05-05T08:35:14.771Z,949.26
2019-05-05T08:36:04.421Z,949.24
2019-05-05T08:37:04.384Z,949.24
2019-05-05T08:38:04.553Z,949.27
2019-05-05T08:39:03.743Z,949.29
2019-05-05T08:40:04.337Z,949.26
2019-05-05T08:41:04.403Z,949.26
2019-05-05T08:42:04.282Z,949.28
2019-05-05T08:43:04.470Z,949.20
2019-05-05T08:44:03.684Z,949.23
2019-05-05T08:45:04.451Z,949.27
2019-05-05T08:46:04.655Z,949.31
2019-05-05T08:47:04.285Z,949.35
2019-05-05T08:48:04.669Z,949.35
2019-05-05T08:49:04.290Z,949.30
2019-05-05T08:50:04.168Z,949.29
2019-05-05T08:51:04.612Z,949.26
2019-05-05T08:52:03.994Z,949.29
2019-05-05T08:53:04.287Z,949.31
2019-05-05T08:54:03.907Z,949.26
2019-05-05T08:55:04.525Z,949.29
2019-05-05T08:56:04.057Z,949.31
2019-05-05T08:57:04.209Z,949.28
2019-05-05T08:58:04.381Z,949.24
2019-05-05T08:59:03.646Z,949.20
2019-05-05T09:00:02.222Z,949.22
2019-05-05T09:01:04.207Z,949.27
2019-05-05T09:02:04.343Z,949.25
2019-05-05T09:03:03.796Z,949.29
2019-05-05T09:04:04.134Z,949.27
2019-05-05T09:05:04.131Z,949.33
2019-05-05T09:06:02.157Z,949.29
2019-05-05T09:07:02.140Z,949.28
2019-05-05T09:08:04.320Z,949.29
2019-05-05T09:09:03.845Z,949.23
2019-05-05T09:10:03.907Z,949.31
2019-05-05T09:11:04.520Z,949.30
2019-05-05T09:12:04.386Z,949.31
2019-05-05T09:13:03.801Z,949.34
2019-05-05T09:14:04.030Z,949.32
2019-05-05T09:15:04.256Z,949.32
2019-05-05T09:16:03.780Z,949.31
2019-05-05T09:17:04.270Z,949.27
2019-05-05T09:18:02.018Z,949.32
2019-05-05T09:19:03.959Z,949.35
2019-05-05T09:20:04.373Z,949.38
2019-05-05T09:21:04.203Z,949.39
2019-05-05T09:22:01.988Z,949.38
2019-05-05T09:23:03.752Z,949.41
2019-05-05T09:24:05.408Z,949.41
2019-05-05T09:25:04.150Z,949.44
2019-05-05T09:26:04.331Z,949.45
2019-05-05T09:27:14.331Z,949.42
2019-05-05T09:28:03.951Z,949.42
2019-05-05T09:29:01.895Z,949.48
2019-05-05T09:30:03.886Z,949.47
2019-05-05T09:31:04.052Z,949.49
2019-05-05T09:32:03.916Z,949.49
2019-05-05T09:33:03.574Z,949.51
2019-05-05T09:34:04.036Z,949.46
2019-05-05T09:35:24.045Z,949.51
2019-05-05T09:36:01.823Z,949.47
2019-05-05T09:37:03.682Z,949.45
2019-05-05T09:38:03.866Z,949.45
2019-05-05T09:39:01.825Z,949.42
2019-05-05T09:40:01.776Z,949.45
2019-05-05T09:41:03.731Z,949.48
2019-05-05T09:42:03.925Z,949.47
2019-05-05T09:43:03.805Z,949.45
2019-05-05T09:44:01.770Z,949.49
2019-05-05T09:45:01.710Z,949.51
2019-05-05T09:46:03.758Z,949.54
2019-05-05T09:47:01.918Z,949.52
2019-05-05T09:48:01.733Z,949.51
2019-05-05T09:49:01.665Z,949.50
2019-05-05T09:50:03.795Z,949.49
2019-05-05T09:51:01.648Z,949.55
2019-05-05T09:52:01.665Z,949.50
2019-05-05T09:53:01.645Z,949.56
2019-05-05T09:54:13.746Z,949.51
2019-05-05T09:55:03.824Z,949.48
2019-05-05T09:56:03.898Z,949.52
2019-05-05T09:57:01.633Z,949.57
2019-05-05T09:58:01.577Z,949.55
2019-05-05T09:59:03.685Z,949.55
2019-05-05T10:00:01.548Z,949.57
2019-05-05T10:01:01.544Z,949.55
2019-05-05T10:02:01.543Z,949.54
2019-05-05T10:03:03.682Z,949.61
2019-05-05T10:04:01.504Z,949.62
2019-05-05T10:05:03.801Z,949.60
2019-05-05T10:06:01.485Z,949.65
2019-05-05T10:07:01.465Z,949.61
2019-05-05T10:08:04.127Z,949.59
2019-05-05T10:09:01.450Z,949.61
2019-05-05T10:10:01.429Z,949.65
2019-05-05T10:11:01.462Z,949.65
2019-05-05T10:12:01.437Z,949.68
2019-05-05T10:13:01.402Z,949.63
2019-05-05T10:14:01.382Z,949.63
2019-05-05T10:15:01.454Z,949.67
2019-05-05T10:16:01.356Z,949.67
2019-05-05T10:17:01.469Z,949.63
2019-05-05T10:18:03.382Z,949.63
2019-05-05T10:19:01.322Z,949.66
2019-05-05T10:20:01.334Z,949.66
2019-05-05T10:21:05.969Z,949.68
2019-05-05T10:22:01.287Z,949.63
2019-05-05T10:23:01.311Z,949.66
2019-05-05T10:24:01.264Z,949.68
2019-05-05T10:25:01.288Z,949.62
2019-05-05T10:26:01.256Z,949.70
2019-05-05T10:27:01.234Z,949.66
2019-05-05T10:28:01.231Z,949.66
2019-05-05T10:29:01.336Z,949.62
2019-05-05T10:30:01.195Z,949.64
2019-05-05T10:31:01.203Z,949.65
2019-05-05T10:32:01.174Z,949.61
2019-05-05T10:33:01.166Z,949.58
2019-05-05T10:34:01.217Z,949.63
2019-05-05T10:35:01.141Z,949.63
2019-05-05T10:36:01.128Z,949.61
2019-05-05T10:37:01.124Z,949.67
2019-05-05T10:38:01.101Z,949.68
2019-05-05T10:39:01.102Z,949.68
2019-05-05T10:40:01.153Z,949.65
2019-05-05T10:41:01.074Z,949.64
2019-05-05T10:42:01.063Z,949.77
2019-05-05T10:43:01.109Z,949.71
2019-05-05T10:44:01.054Z,949.68
2019-05-05T10:45:01.032Z,949.66
2019-05-05T10:46:01.057Z,949.72
2019-05-05T10:47:01.000Z,949.64
2019-05-05T10:48:00.997Z,949.63
2019-05-05T10:49:00.986Z,949.65
2019-05-05T10:50:00.966Z,949.68
2019-05-05T10:51:00.978Z,949.68
2019-05-05T10:52:00.966Z,949.70
2019-05-05T10:53:00.937Z,949.72
2019-05-05T10:54:00.922Z,949.71
2019-05-05T10:55:00.914Z,949.69
2019-05-05T10:56:00.904Z,949.68
2019-05-05T10:57:00.908Z,949.61
2019-05-05T10:58:00.897Z,949.67
2019-05-05T10:59:00.868Z,949.68
2019-05-05T11:00:10.159Z,949.63
2019-05-05T11:01:03.962Z,949.69
2019-05-05T11:02:00.852Z,949.70
2019-05-05T11:03:00.823Z,949.67
2019-05-05T11:04:00.823Z,949.68
2019-05-05T11:05:00.792Z,949.70
2019-05-05T11:06:00.791Z,949.70
2019-05-05T11:07:00.802Z,949.69
2019-05-05T11:08:00.805Z,949.69
2019-05-05T11:09:00.751Z,949.67
2019-05-05T11:10:00.743Z,949.66
2019-05-05T11:11:00.725Z,949.72
2019-05-05T11:12:00.713Z,949.69
2019-05-05T11:13:00.723Z,949.65
2019-05-05T11:14:00.707Z,949.62
2019-05-05T11:15:00.686Z,949.58
2019-05-05T11:16:00.675Z,949.56
2019-05-05T11:17:00.659Z,949.58
2019-05-05T11:18:00.648Z,949.57
2019-05-05T11:19:00.721Z,949.57
2019-05-05T11:20:00.624Z,949.53
2019-05-05T11:21:00.614Z,949.54
2019-05-05T11:22:16.416Z,949.54
2019-05-05T11:23:00.603Z,949.50
2019-05-05T11:24:00.571Z,949.49
2019-05-05T11:25:01.264Z,949.52
2019-05-05T11:26:00.571Z,949.51
2019-05-05T11:27:00.549Z,949.50
2019-05-05T11:28:00.534Z,949.55
2019-05-05T11:29:00.547Z,949.55
2019-05-05T11:30:00.513Z,949.56
2019-05-05T11:31:00.524Z,949.58
2019-05-05T11:32:00.489Z,949.60
2019-05-05T11:33:00.479Z,949.57
2019-05-05T11:34:00.491Z,949.59
2019-05-05T11:35:00.452Z,949.62
2019-05-05T11:36:00.474Z,949.56
2019-05-05T11:37:00.433Z,949.59
2019-05-05T11:38:00.429Z,949.60
2019-05-05T11:39:00.405Z,949.61
2019-05-05T11:40:00.426Z,949.67
2019-05-05T11:41:00.384Z,949.61
2019-05-05T11:42:00.933Z,949.64
2019-05-05T11:43:00.362Z,949.64
2019-05-05T11:44:00.350Z,949.68
2019-05-05T11:45:00.336Z,949.63
2019-05-05T11:46:00.358Z,949.59
2019-05-05T11:47:00.336Z,949.66
2019-05-05T11:48:00.304Z,949.66
2019-05-05T11:49:00.295Z,949.67
2019-05-05T11:50:00.285Z,949.62
2019-05-05T11:51:00.284Z,949.64
2019-05-05T11:52:00.299Z,949.63
2019-05-05T11:53:00.247Z,949.61
2019-05-05T11:54:00.237Z,949.62
2019-05-05T11:55:09.782Z,949.64
2019-05-05T11:56:01.206Z,949.54
2019-05-05T11:57:00.199Z,949.53
2019-05-05T11:58:00.243Z,949.53
2019-05-05T11:59:00.178Z,949.55
2019-05-05T12:00:00.170Z,949.59
2019-05-05T12:01:00.150Z,949.59
2019-05-05T12:02:00.135Z,949.51
2019-05-05T12:03:00.128Z,949.57
2019-05-05T12:04:00.160Z,949.62
2019-05-05T12:05:00.110Z,949.62
2019-05-05T12:06:00.102Z,949.58
2019-05-05T12:07:00.084Z,949.66
2019-05-05T12:08:00.079Z,949.61
2019-05-05T12:09:00.082Z,949.62
2019-05-05T12:10:00.079Z,949.62
2019-05-05T12:11:00.035Z,949.65
2019-05-05T12:12:00.026Z,949.67
2019-05-05T12:13:00.026Z,949.64
2019-05-05T12:13:59.998Z,949.69
2019-05-05T12:15:00.009Z,949.69
2019-05-05T12:15:59.982Z,949.66
2019-05-05T12:17:01.247Z,949.69
2019-05-05T12:18:01.125Z,949.76
2019-05-05T12:19:00.249Z,949.73
2019-05-05T12:19:59.981Z,949.74
2019-05-05T12:20:59.923Z,949.73
2019-05-05T12:21:59.910Z,949.81
2019-05-05T12:22:59.921Z,949.77
2019-05-05T12:23:59.888Z,949.78
2019-05-05T12:24:59.875Z,949.71
2019-05-05T12:25:59.942Z,949.79
2019-05-05T12:26:59.855Z,949.78
2019-05-05T12:27:59.849Z,949.74